EGFF

Cardiff International Airport

Cardiff, United Kingdom
METAR EGFF 181950Z AUTO 17001KT 9999 NCD 03/02 Q1033
Observed Flight Rules
Dec-18 @ 19:50 UTC (40 minutes ago) Visual Flight Rules
Wind Visibility Clouds
170° at 1 knots 10,000+ meters
  • Clear skies
Temperatures Readings
Current 3°C / 37°F
Dewpoint 2°C / 36°F
Humidity 93%
Altimeter 30.5" Hg
Pressure 1033 hPa
Elevation 67
METAR EGFF 181950Z AUTO 17001KT 9999 NCD 03/02 Q1033
Observed Flight Rules
Dec-18 @ 19:50 UTC
(40 minutes ago)
VFR
Wind Visibility
170° at 1 knots 10,000+ meters
Clouds
  • Clear skies
Temperature Dewpoint
3°C / 37°F 2°C / 36°F
Humidity Altimeter Pressure
93% 30.5" Hg 1033 hPa